createdAt,value
2017-11-17T00:01:19.825Z,-61
2017-11-17T00:03:47.229Z,-61
2017-11-17T00:06:16.499Z,-60
2017-11-17T00:08:44.652Z,-61
2017-11-17T00:11:12.517Z,-61
2017-11-17T00:13:39.568Z,-61
2017-11-17T00:16:07.390Z,-61
2017-11-17T00:18:34.402Z,-61
2017-11-17T00:21:01.634Z,-61
2017-11-17T00:23:28.590Z,-61
2017-11-17T00:25:55.559Z,-61
2017-11-17T00:28:22.525Z,-61
2017-11-17T00:30:49.504Z,-70
2017-11-17T00:33:16.475Z,-61
2017-11-17T00:35:43.438Z,-61
2017-11-17T00:38:10.406Z,-61
2017-11-17T00:40:37.766Z,-61
2017-11-17T00:43:04.726Z,-61
2017-11-17T00:45:31.680Z,-61
2017-11-17T00:47:58.642Z,-61
2017-11-17T00:50:25.614Z,-61
2017-11-17T00:52:52.586Z,-61
2017-11-17T00:55:19.568Z,-61
2017-11-17T00:57:46.543Z,-61
2017-11-17T01:00:13.545Z,-61
2017-11-17T01:02:40.507Z,-61
2017-11-17T01:05:07.485Z,-61
2017-11-17T01:07:34.465Z,-62
2017-11-17T01:10:01.448Z,-61
2017-11-17T01:12:28.405Z,-61
2017-11-17T01:14:55.360Z,-61
2017-11-17T01:17:22.313Z,-61
2017-11-17T01:19:49.279Z,-61
2017-11-17T01:22:16.259Z,-61
2017-11-17T01:24:43.231Z,-61
2017-11-17T01:27:10.202Z,-61
2017-11-17T01:29:37.178Z,-61
2017-11-17T01:32:04.541Z,-61
2017-11-17T01:34:31.516Z,-61
2017-11-17T01:36:58.585Z,-62
2017-11-17T01:39:25.546Z,-61
2017-11-17T01:41:52.506Z,-61
2017-11-17T01:44:19.489Z,-61
2017-11-17T01:46:46.471Z,-61
2017-11-17T01:49:13.423Z,-64
2017-11-17T01:51:40.396Z,-61
2017-11-17T01:54:07.357Z,-61
2017-11-17T01:56:34.323Z,-61
2017-11-17T01:59:01.291Z,-62
2017-11-17T02:01:28.256Z,-61
2017-11-17T02:03:55.241Z,-61
2017-11-17T02:06:22.227Z,-61
2017-11-17T02:08:49.332Z,-61
2017-11-17T02:11:16.311Z,-61
2017-11-17T02:13:43.275Z,-61
2017-11-17T02:16:10.239Z,-61
2017-11-17T02:18:37.195Z,-61
2017-11-17T02:21:04.157Z,-61
2017-11-17T02:23:31.153Z,-61
2017-11-17T02:25:58.115Z,-61
2017-11-17T02:28:25.091Z,-61
2017-11-17T02:30:52.453Z,-61
2017-11-17T02:33:19.418Z,-61
2017-11-17T02:35:46.389Z,-61
2017-11-17T02:38:13.366Z,-61
2017-11-17T02:40:40.340Z,-62
2017-11-17T02:43:07.314Z,-61
2017-11-17T02:45:34.292Z,-61
2017-11-17T02:48:01.256Z,-61
2017-11-17T02:50:28.221Z,-61
2017-11-17T02:52:55.588Z,-61
2017-11-17T02:55:22.569Z,-61
2017-11-17T02:57:49.529Z,-61
2017-11-17T03:00:16.501Z,-61
2017-11-17T03:02:43.881Z,-61
2017-11-17T03:05:10.847Z,-61
2017-11-17T03:07:37.832Z,-61
2017-11-17T03:10:04.787Z,-61
2017-11-17T03:12:31.745Z,-61
2017-11-17T03:14:58.707Z,-61
2017-11-17T03:17:25.691Z,-61
2017-11-17T03:19:52.669Z,-61
2017-11-17T03:22:19.639Z,-61
2017-11-17T03:24:46.593Z,-61
2017-11-17T03:27:13.571Z,-61
2017-11-17T03:29:40.547Z,-61
2017-11-17T03:32:07.520Z,-61
2017-11-17T03:34:34.482Z,-61
2017-11-17T03:37:01.565Z,-61
2017-11-17T03:39:28.542Z,-61
2017-11-17T03:41:55.520Z,-61
2017-11-17T03:44:22.501Z,-61
2017-11-17T03:46:49.468Z,-61
2017-11-17T03:49:16.425Z,-61
2017-11-17T03:51:43.793Z,-61
2017-11-17T03:54:10.764Z,-60
2017-11-17T03:56:37.740Z,-61
2017-11-17T03:59:04.721Z,-61
2017-11-17T04:01:32.079Z,-61
2017-11-17T04:03:59.059Z,-61
2017-11-17T04:06:26.038Z,-61
2017-11-17T04:08:53.001Z,-61
2017-11-17T04:11:19.966Z,-60
2017-11-17T04:13:46.927Z,-61
2017-11-17T04:16:13.902Z,-61
2017-11-17T04:18:40.873Z,-61
2017-11-17T04:21:07.853Z,-60
2017-11-17T04:23:35.227Z,-61
2017-11-17T04:26:02.204Z,-61
2017-11-17T04:28:29.176Z,-61
2017-11-17T04:30:56.152Z,-61
2017-11-17T04:33:23.519Z,-61
2017-11-17T04:35:50.498Z,-61
2017-11-17T04:38:17.458Z,-63
2017-11-17T04:40:44.422Z,-60
2017-11-17T04:43:11.397Z,-61
2017-11-17T04:45:38.362Z,-62
2017-11-17T04:48:05.534Z,-61
2017-11-17T04:50:32.506Z,-61
2017-11-17T04:52:59.483Z,-61
2017-11-17T04:55:26.446Z,-61
2017-11-17T04:57:53.423Z,-61
2017-11-17T05:00:20.668Z,-61
2017-11-17T05:02:47.626Z,-61
2017-11-17T05:05:14.598Z,-61
2017-11-17T05:07:41.576Z,-61
2017-11-17T05:10:08.541Z,-61
2017-11-17T05:12:35.498Z,-61
2017-11-17T05:15:02.462Z,-61
2017-11-17T05:17:29.456Z,-61
2017-11-17T05:19:56.434Z,-61
2017-11-17T05:22:23.579Z,-61
2017-11-17T05:24:50.562Z,-61
2017-11-17T05:27:17.544Z,-61
2017-11-17T05:29:44.519Z,-61
2017-11-17T05:32:11.485Z,-66
2017-11-17T05:34:38.446Z,-61
2017-11-17T05:37:05.423Z,-61
2017-11-17T05:39:32.395Z,-61
2017-11-17T05:41:59.382Z,-61
2017-11-17T05:44:26.359Z,-61
2017-11-17T05:46:53.314Z,-61
2017-11-17T05:49:20.283Z,-61
2017-11-17T05:51:47.264Z,-61
2017-11-17T05:54:14.258Z,-61
2017-11-17T05:56:41.248Z,-61
2017-11-17T05:59:08.834Z,-60
2017-11-17T06:01:35.814Z,-61
2017-11-17T06:04:02.976Z,-61
2017-11-17T06:06:29.956Z,-61
2017-11-17T06:08:56.927Z,-61
2017-11-17T06:11:24.300Z,-61
2017-11-17T06:13:51.284Z,-61
2017-11-17T06:16:18.277Z,-61
2017-11-17T06:18:45.229Z,-61
2017-11-17T06:21:12.228Z,-61
2017-11-17T06:23:39.226Z,-60
2017-11-17T06:26:06.200Z,-61
2017-11-17T06:28:33.176Z,-61
2017-11-17T06:31:00.130Z,-61
2017-11-17T06:33:27.103Z,-61
2017-11-17T06:35:54.093Z,-61
2017-11-17T06:38:21.055Z,-61
2017-11-17T06:40:48.078Z,-61
2017-11-17T06:43:15.038Z,-61
2017-11-17T06:45:42.002Z,-61
2017-11-17T06:48:08.961Z,-61
2017-11-17T06:50:35.931Z,-61
2017-11-17T06:53:02.908Z,-61
2017-11-17T06:55:29.895Z,-61
2017-11-17T06:57:56.872Z,-61
2017-11-17T07:00:23.844Z,-61
2017-11-17T07:02:50.820Z,-61
2017-11-17T07:05:17.805Z,-61
2017-11-17T07:07:44.767Z,-61
2017-11-17T07:10:11.741Z,-61
2017-11-17T07:12:38.698Z,-62
2017-11-17T07:15:05.663Z,-61
2017-11-17T07:17:32.639Z,-61
2017-11-17T07:19:59.608Z,-61
2017-11-17T07:22:26.570Z,-61
2017-11-17T07:24:53.549Z,-61
2017-11-17T07:27:20.509Z,-61
2017-11-17T07:29:47.871Z,-61
2017-11-17T07:32:14.835Z,-61
2017-11-17T07:34:41.832Z,-61
2017-11-17T07:37:09.832Z,-61
2017-11-17T07:39:36.813Z,-61
2017-11-17T07:42:03.799Z,-62
2017-11-17T07:44:30.767Z,-61
2017-11-17T07:46:57.748Z,-61
2017-11-17T07:49:24.716Z,-61
2017-11-17T07:51:51.690Z,-61
2017-11-17T07:54:19.073Z,-61
2017-11-17T07:56:46.029Z,-61
2017-11-17T07:59:12.994Z,-61
2017-11-17T08:01:39.981Z,-61
2017-11-17T08:04:07.330Z,-61
2017-11-17T08:06:34.299Z,-61
2017-11-17T08:09:01.266Z,-61
2017-11-17T08:11:28.249Z,-61
2017-11-17T08:13:55.229Z,-60
2017-11-17T08:16:22.190Z,-62
2017-11-17T08:18:49.188Z,-61
2017-11-17T08:21:16.141Z,-61
2017-11-17T08:23:43.106Z,-61
2017-11-17T08:26:10.489Z,-61
2017-11-17T08:28:37.457Z,-61
2017-11-17T08:31:04.441Z,-62
2017-11-17T08:33:31.404Z,-61
2017-11-17T08:35:58.776Z,-61
2017-11-17T08:38:25.752Z,-61
2017-11-17T08:40:52.735Z,-61
2017-11-17T08:43:19.741Z,-62
2017-11-17T08:45:46.727Z,-61
2017-11-17T08:48:13.698Z,-61
2017-11-17T08:50:41.069Z,-63
2017-11-17T08:53:08.038Z,-61
2017-11-17T08:55:35.017Z,-61
2017-11-17T08:58:01.979Z,-61
2017-11-17T09:00:29.353Z,-61
2017-11-17T09:02:56.327Z,-61
2017-11-17T09:05:23.286Z,-61
2017-11-17T09:07:50.260Z,-61
2017-11-17T09:10:17.236Z,-61
2017-11-17T09:12:44.205Z,-60
2017-11-17T09:15:11.163Z,-61
2017-11-17T09:17:38.130Z,-61
2017-11-17T09:20:05.108Z,-61
2017-11-17T09:22:32.079Z,-61
2017-11-17T09:24:59.047Z,-61
2017-11-17T09:27:26.019Z,-61
2017-11-17T09:29:52.993Z,-61
2017-11-17T09:32:19.964Z,-60
2017-11-17T09:34:46.925Z,-61
2017-11-17T09:37:13.882Z,-62
2017-11-17T09:39:40.846Z,-61
2017-11-17T09:42:07.806Z,-61
2017-11-17T09:44:34.766Z,-61
2017-11-17T09:47:02.139Z,-61
2017-11-17T09:49:29.113Z,-61
2017-11-17T09:51:56.084Z,-60
2017-11-17T09:54:23.052Z,-61
2017-11-17T09:56:50.424Z,-61
2017-11-17T09:59:17.446Z,-60
2017-11-17T10:01:44.412Z,-61
2017-11-17T10:04:11.370Z,-61
2017-11-17T10:06:38.332Z,-61
2017-11-17T10:09:05.313Z,-61
2017-11-17T10:11:32.286Z,-60
2017-11-17T10:13:59.276Z,-61
2017-11-17T10:16:26.259Z,-61
2017-11-17T10:18:53.232Z,-61
2017-11-17T10:21:20.195Z,-62
2017-11-17T10:23:47.155Z,-61
2017-11-17T10:26:14.132Z,-61
2017-11-17T10:28:41.113Z,-62
2017-11-17T10:31:08.115Z,-60
2017-11-17T10:33:35.073Z,-61
2017-11-17T10:36:02.068Z,-61
2017-11-17T10:38:29.056Z,-61
2017-11-17T10:40:56.040Z,-61
2017-11-17T10:43:23.013Z,-61
2017-11-17T10:45:49.977Z,-61
2017-11-17T10:48:16.941Z,-61
2017-11-17T10:50:43.917Z,-61
2017-11-17T10:53:10.894Z,-61
2017-11-17T10:55:37.869Z,-61
2017-11-17T10:58:04.853Z,-61
2017-11-17T11:00:31.832Z,-60
2017-11-17T11:02:58.790Z,-61
2017-11-17T11:05:25.753Z,-61
2017-11-17T11:07:52.714Z,-61
2017-11-17T11:10:19.695Z,-61
2017-11-17T11:12:46.676Z,-62
2017-11-17T11:15:13.664Z,-61
2017-11-17T11:17:40.621Z,-61
2017-11-17T11:20:07.993Z,-62
2017-11-17T11:22:34.959Z,-61
2017-11-17T11:25:01.923Z,-62
2017-11-17T11:27:28.897Z,-66
2017-11-17T11:29:55.886Z,-62
2017-11-17T11:32:22.842Z,-61
2017-11-17T11:34:49.817Z,-61
2017-11-17T11:37:16.791Z,-61
2017-11-17T11:39:43.812Z,-62
2017-11-17T11:42:10.780Z,-61
2017-11-17T11:44:37.757Z,-61
2017-11-17T11:47:04.733Z,-61
2017-11-17T11:49:31.709Z,-69
2017-11-17T11:51:59.097Z,-60
2017-11-17T11:54:26.066Z,-61
2017-11-17T11:56:53.053Z,-61
2017-11-17T11:59:20.028Z,-61
2017-11-17T12:01:47.397Z,-61
2017-11-17T12:04:14.378Z,-61
2017-11-17T12:06:41.343Z,-65
2017-11-17T12:09:08.305Z,-61
2017-11-17T12:11:35.270Z,-61
2017-11-17T12:14:02.264Z,-61
2017-11-17T12:16:29.221Z,-61
2017-11-17T12:18:56.198Z,-61
2017-11-17T12:21:23.149Z,-61
2017-11-17T12:23:50.516Z,-61
2017-11-17T12:26:17.485Z,-61
2017-11-17T12:28:44.468Z,-61
2017-11-17T12:31:11.430Z,-61
2017-11-17T12:33:38.786Z,-61
2017-11-17T12:36:05.761Z,-61
2017-11-17T12:38:32.718Z,-61
2017-11-17T12:40:59.693Z,-61
2017-11-17T12:43:26.841Z,-61
2017-11-17T12:45:53.817Z,-68
2017-11-17T12:48:20.781Z,-61
2017-11-17T12:50:47.761Z,-61
2017-11-17T12:53:14.753Z,-61
2017-11-17T12:55:41.713Z,-61
2017-11-17T12:58:09.217Z,-61
2017-11-17T13:00:36.182Z,-61
2017-11-17T13:03:03.160Z,-61
2017-11-17T13:05:30.536Z,-62
2017-11-17T13:07:57.507Z,-61
2017-11-17T13:10:24.480Z,-61
2017-11-17T13:12:51.509Z,-61
2017-11-17T13:15:18.529Z,-62
2017-11-17T13:17:45.513Z,-61
2017-11-17T13:20:12.474Z,-61
2017-11-17T13:22:39.448Z,-61
2017-11-17T13:25:07.576Z,-62
2017-11-17T13:27:34.607Z,-62
2017-11-17T13:30:01.858Z,-61
2017-11-17T13:32:28.835Z,-61
2017-11-17T13:34:55.795Z,-60
2017-11-17T13:37:23.168Z,-60
2017-11-17T13:39:50.144Z,-62
2017-11-17T13:42:17.824Z,-61
2017-11-17T13:44:44.812Z,-61
2017-11-17T13:47:11.788Z,-61
2017-11-17T13:49:38.768Z,-61
2017-11-17T13:52:05.762Z,-64
2017-11-17T13:54:33.221Z,-61
2017-11-17T13:57:00.417Z,-61
2017-11-17T13:59:27.404Z,-61
2017-11-17T14:01:54.366Z,-61
2017-11-17T14:04:21.350Z,-61
2017-11-17T14:06:48.318Z,-62
2017-11-17T14:09:15.299Z,-62
2017-11-17T14:11:42.672Z,-61
2017-11-17T14:14:10.543Z,-61
2017-11-17T14:16:37.518Z,-61
2017-11-17T14:19:04.496Z,-61
2017-11-17T14:21:31.861Z,-62
2017-11-17T14:23:58.848Z,-62
2017-11-17T14:26:25.846Z,-61
2017-11-17T14:28:54.846Z,-61
2017-11-17T14:31:23.022Z,-62
2017-11-17T14:33:50.220Z,-61
2017-11-17T14:36:17.370Z,-61
2017-11-17T14:38:44.520Z,-61
2017-11-17T14:41:11.590Z,-62
2017-11-17T14:43:38.719Z,-61
2017-11-17T14:46:05.896Z,-61
2017-11-17T14:48:34.351Z,-61
2017-11-17T15:03:56.570Z,-61
2017-11-17T15:06:24.466Z,-67
2017-11-17T15:08:51.449Z,-62
2017-11-17T15:11:18.424Z,-61
2017-11-17T15:13:45.709Z,-61
2017-11-17T15:16:13.064Z,-61
2017-11-17T15:18:41.554Z,-61
2017-11-17T15:21:10.174Z,-61
2017-11-17T15:23:37.359Z,-61
2017-11-17T15:26:04.346Z,-61
2017-11-17T15:28:31.339Z,-61
2017-11-17T15:30:58.861Z,-61
2017-11-17T15:33:26.259Z,-63
2017-11-17T15:35:54.132Z,-62
2017-11-17T15:38:21.113Z,-61
2017-11-17T15:40:48.356Z,-61
2017-11-17T15:43:15.381Z,-61
2017-11-17T15:45:42.356Z,-61
2017-11-17T15:48:09.365Z,-62
2017-11-17T15:50:36.361Z,-62
2017-11-17T15:53:03.768Z,-61
2017-11-17T15:55:30.767Z,-61
2017-11-17T15:57:57.864Z,-61
2017-11-17T16:00:24.851Z,-61
2017-11-17T16:02:52.504Z,-61
2017-11-17T16:05:19.498Z,-61
2017-11-17T16:07:46.486Z,-61
2017-11-17T16:10:13.477Z,-61
2017-11-17T16:12:40.467Z,-61
2017-11-17T16:15:07.441Z,-61
2017-11-17T16:17:34.411Z,-61
2017-11-17T16:20:01.789Z,-61
2017-11-17T16:22:28.766Z,-61
2017-11-17T16:24:55.758Z,-61
2017-11-17T16:27:22.947Z,-61
2017-11-17T16:29:50.101Z,-61
2017-11-17T16:32:17.106Z,-61
2017-11-17T16:34:44.107Z,-62
2017-11-17T16:37:11.660Z,-68
2017-11-17T16:39:38.803Z,-61
2017-11-17T16:42:05.787Z,-61
2017-11-17T16:44:32.832Z,-61
2017-11-17T16:46:59.804Z,-61
2017-11-17T16:49:26.820Z,-61
2017-11-17T16:51:53.849Z,-61
2017-11-17T16:54:20.835Z,-65
2017-11-17T16:56:48.143Z,-61
2017-11-17T16:59:15.118Z,-61
2017-11-17T17:01:42.099Z,-61
2017-11-17T17:04:09.084Z,-61
2017-11-17T17:06:36.075Z,-61
2017-11-17T17:09:03.048Z,-62
2017-11-17T17:11:30.130Z,-62
2017-11-17T17:13:57.117Z,-61
2017-11-17T17:16:24.095Z,-61
2017-11-17T17:18:51.084Z,-61
2017-11-17T17:21:18.073Z,-60
2017-11-17T17:23:45.261Z,-60
2017-11-17T17:26:12.251Z,-60
2017-11-17T17:28:39.252Z,-61
2017-11-17T17:31:06.228Z,-60
2017-11-17T17:33:35.160Z,-59
2017-11-17T17:36:04.339Z,-59
2017-11-17T17:38:33.248Z,-58
2017-11-17T17:41:02.179Z,-59
2017-11-17T17:43:31.111Z,-58
2017-11-17T17:46:00.045Z,-59
2017-11-17T17:48:28.945Z,-58
2017-11-17T17:50:57.858Z,-59
2017-11-17T17:53:26.784Z,-59
2017-11-17T17:55:55.696Z,-59
2017-11-17T17:58:24.614Z,-58
2017-11-17T18:00:53.534Z,-58
2017-11-17T18:03:22.463Z,-58
2017-11-17T18:05:51.387Z,-59
2017-11-17T18:08:20.312Z,-58
2017-11-17T18:10:49.226Z,-59
2017-11-17T18:13:18.134Z,-59
2017-11-17T18:15:47.056Z,-58
2017-11-17T18:18:15.980Z,-59
2017-11-17T18:20:44.889Z,-58
2017-11-17T18:23:14.782Z,-58
2017-11-17T18:25:44.085Z,-59
2017-11-17T18:28:13.018Z,-59
2017-11-17T18:30:41.957Z,-58
2017-11-17T18:33:11.140Z,-58
2017-11-17T18:35:40.095Z,-58
2017-11-17T18:38:09.313Z,-59
2017-11-17T18:40:38.352Z,-59
2017-11-17T18:43:08.262Z,-59
2017-11-17T18:45:37.253Z,-58
2017-11-17T18:48:06.991Z,-59
2017-11-17T18:50:37.045Z,-59
2017-11-17T18:53:06.683Z,-59
2017-11-17T18:55:35.986Z,-58
2017-11-17T18:58:06.191Z,-59
2017-11-17T19:00:35.517Z,-59
2017-11-17T19:03:05.750Z,-58
2017-11-17T19:05:35.049Z,-59
2017-11-17T19:08:05.222Z,-58
2017-11-17T19:10:36.910Z,-59
2017-11-17T19:13:06.910Z,-59
2017-11-17T19:15:37.863Z,-59
2017-11-17T19:18:07.032Z,-59
2017-11-17T19:20:37.705Z,-58
2017-11-17T19:23:06.667Z,-59
2017-11-17T19:25:37.329Z,-58
2017-11-17T19:28:08.219Z,-59
2017-11-17T19:30:38.814Z,-58
2017-11-17T19:33:09.687Z,-59
2017-11-17T19:35:40.377Z,-59
2017-11-17T19:38:10.628Z,-58
2017-11-17T19:40:41.267Z,-59
2017-11-17T19:43:12.080Z,-58
2017-11-17T19:45:42.895Z,-59
2017-11-17T19:48:13.770Z,-59
2017-11-17T19:50:44.420Z,-59
2017-11-17T19:53:15.011Z,-59
2017-11-17T19:55:45.637Z,-58
2017-11-17T19:58:16.550Z,-59
2017-11-17T20:00:47.241Z,-58
2017-11-17T20:03:18.262Z,-58
2017-11-17T20:05:49.018Z,-58
2017-11-17T20:08:19.805Z,-59
2017-11-17T20:10:50.387Z,-58
2017-11-17T20:13:19.904Z,-58
2017-11-17T20:15:50.399Z,-58
2017-11-17T20:18:21.051Z,-59
2017-11-17T20:20:51.864Z,-59
2017-11-17T20:23:22.684Z,-59
2017-11-17T20:25:54.086Z,-59
2017-11-17T20:28:24.557Z,-59
2017-11-17T20:30:55.618Z,-59
2017-11-17T20:33:25.950Z,-59
2017-11-17T20:35:56.420Z,-59
2017-11-17T20:38:27.317Z,-59
2017-11-17T20:40:58.109Z,-58
2017-11-17T20:43:28.293Z,-59
2017-11-17T20:45:59.342Z,-59
2017-11-17T20:48:29.797Z,-59
2017-11-17T20:51:00.876Z,-58
2017-11-17T20:53:31.520Z,-59
2017-11-17T20:56:02.036Z,-59
2017-11-17T20:58:32.607Z,-59
2017-11-17T21:01:02.347Z,-59
2017-11-17T21:03:32.979Z,-58
2017-11-17T21:06:02.562Z,-58
2017-11-17T21:08:31.853Z,-59
2017-11-17T21:11:01.154Z,-59
2017-11-17T21:13:30.454Z,-59
2017-11-17T21:16:00.370Z,-59
2017-11-17T21:18:30.573Z,-59
2017-11-17T21:20:59.606Z,-58
2017-11-17T21:23:30.442Z,-59
2017-11-17T21:25:59.723Z,-58
2017-11-17T21:28:28.728Z,-59
2017-11-17T21:30:57.667Z,-58
2017-11-17T21:33:26.590Z,-59
2017-11-17T21:35:55.522Z,-58
2017-11-17T21:38:24.677Z,-58
2017-11-17T21:40:53.604Z,-59
2017-11-17T21:43:22.533Z,-59
2017-11-17T21:45:51.667Z,-58
2017-11-17T21:48:20.609Z,-58
2017-11-17T21:50:49.553Z,-58
2017-11-17T21:53:18.460Z,-58
2017-11-17T21:55:47.394Z,-58
2017-11-17T21:58:16.314Z,-59
2017-11-17T22:00:45.234Z,-59
2017-11-17T22:03:14.481Z,-59
2017-11-17T22:05:43.424Z,-59
2017-11-17T22:08:12.337Z,-59
2017-11-17T22:10:41.263Z,-58
2017-11-17T22:13:10.196Z,-59
2017-11-17T22:15:40.889Z,-59
2017-11-17T22:18:10.124Z,-59
2017-11-17T22:20:40.870Z,-58
2017-11-17T22:23:09.850Z,-58
2017-11-17T22:25:38.761Z,-59
2017-11-17T22:28:07.672Z,-58
2017-11-17T22:30:36.617Z,-59
2017-11-17T22:33:05.530Z,-58
2017-11-17T22:35:34.440Z,-58
2017-11-17T22:38:03.350Z,-59
2017-11-17T22:40:32.257Z,-58
2017-11-17T22:43:01.174Z,-58
2017-11-17T22:45:30.103Z,-58
2017-11-17T22:47:59.028Z,-58
2017-11-17T22:50:27.944Z,-58
2017-11-17T22:52:56.872Z,-58
2017-11-17T22:55:25.798Z,-58
2017-11-17T22:57:54.725Z,-58
2017-11-17T23:00:23.649Z,-59
2017-11-17T23:02:52.589Z,-58
2017-11-17T23:05:21.516Z,-58
2017-11-17T23:07:50.443Z,-59
2017-11-17T23:10:19.368Z,-58
2017-11-17T23:12:48.276Z,-58
2017-11-17T23:15:17.188Z,-59
2017-11-17T23:17:46.120Z,-58
2017-11-17T23:20:15.040Z,-58
2017-11-17T23:22:43.957Z,-59
2017-11-17T23:25:12.895Z,-58
2017-11-17T23:27:41.828Z,-58
2017-11-17T23:30:10.751Z,-58
2017-11-17T23:32:39.672Z,-58
2017-11-17T23:35:08.600Z,-58
2017-11-17T23:37:37.533Z,-58
2017-11-17T23:40:06.463Z,-58
2017-11-17T23:42:35.581Z,-59
2017-11-17T23:45:04.525Z,-59
2017-11-17T23:47:33.473Z,-59
2017-11-17T23:50:02.398Z,-59
2017-11-17T23:52:31.335Z,-59
2017-11-17T23:55:00.275Z,-58
2017-11-17T23:57:29.190Z,-59
2017-11-17T23:59:58.102Z,-58
